Time;durP1;ratioP1;P1;durP2;ratioP2;P2;SDS_P1;SDS_P2;PMS_P1;PMS_P2;Temp;Humidity;BMP_temperature;BMP_pressure;BME280_temperature;BME280_humidity;BME280_pressure;Samples;Min_cycle;Max_cycle;Signal;HPM_P1;HPM_P2
2023/12/17 00:01:08;;;;;;;25.17;6.05;;;10.90;99.90;;;;;;4991682;28;20045;-73
2023/12/17 00:03:34;;;;;;;21.80;5.90;;;10.90;99.90;;;;;;4990640;28;20030;-76
2023/12/17 00:06:00;;;;;;;25.90;5.80;;;10.90;99.90;;;;;;4991550;28;20027;-75
2023/12/17 00:08:26;;;;;;;25.30;5.95;;;10.90;99.90;;;;;;4989704;28;20038;-74
2023/12/17 00:10:52;;;;;;;24.40;6.38;;;10.90;99.90;;;;;;4992927;28;20027;-73
2023/12/17 00:13:18;;;;;;;26.80;7.10;;;10.90;99.90;;;;;;4974121;28;20095;-75
2023/12/17 00:15:44;;;;;;;27.20;6.20;;;10.90;99.90;;;;;;4992534;28;20030;-73
2023/12/17 00:18:11;;;;;;;27.15;6.38;;;10.90;99.90;;;;;;4992585;28;20032;-73
2023/12/17 00:20:37;;;;;;;23.75;6.70;;;10.90;99.90;;;;;;4992094;28;20062;-73
2023/12/17 00:23:04;;;;;;;30.45;6.47;;;10.90;99.90;;;;;;4991180;28;20136;-73
2023/12/17 00:25:30;;;;;;;24.05;6.50;;;10.90;99.90;;;;;;4993550;28;20112;-73
2023/12/17 00:27:55;;;;;;;25.95;6.15;;;10.80;99.90;;;;;;4992627;28;20105;-74
2023/12/17 00:30:21;;;;;;;26.30;6.32;;;10.80;99.90;;;;;;4990550;28;20022;-74
2023/12/17 00:32:47;;;;;;;28.70;6.32;;;10.80;99.90;;;;;;4990688;28;20027;-73
2023/12/17 00:35:12;;;;;;;25.58;6.32;;;10.80;99.90;;;;;;4993244;28;20065;-73
2023/12/17 00:37:38;;;;;;;31.45;6.68;;;10.80;99.90;;;;;;4991109;28;20037;-74
2023/12/17 00:40:05;;;;;;;28.08;6.95;;;10.70;99.90;;;;;;4993321;28;20105;-74
2023/12/17 00:42:30;;;;;;;24.88;6.07;;;10.70;99.90;;;;;;4991776;28;20030;-74
2023/12/17 00:44:56;;;;;;;22.45;5.75;;;10.60;99.90;;;;;;4992249;28;20386;-74
2023/12/17 00:47:21;;;;;;;26.90;6.47;;;10.60;99.90;;;;;;4991727;28;20030;-73
2023/12/17 00:49:47;;;;;;;28.10;6.43;;;10.60;99.90;;;;;;4980625;28;20109;-74
2023/12/17 00:52:12;;;;;;;23.58;5.80;;;10.60;99.90;;;;;;4972524;28;20359;-73
2023/12/17 00:54:38;;;;;;;24.85;6.13;;;10.60;99.90;;;;;;4991955;28;20026;-73
2023/12/17 00:57:04;;;;;;;24.45;6.20;;;10.50;99.90;;;;;;4991366;28;20027;-73
2023/12/17 00:59:30;;;;;;;26.27;5.57;;;10.60;99.90;;;;;;4990994;28;20038;-74
2023/12/17 01:01:55;;;;;;;25.77;6.55;;;10.60;99.90;;;;;;4991563;28;20038;-74
2023/12/17 01:04:21;;;;;;;26.88;6.13;;;10.60;99.90;;;;;;4991639;28;20022;-72
2023/12/17 01:06:46;;;;;;;22.35;6.10;;;10.60;99.90;;;;;;4991680;28;20372;-74
2023/12/17 01:09:12;;;;;;;24.80;6.80;;;10.70;99.90;;;;;;4992902;28;20034;-74
2023/12/17 01:11:38;;;;;;;25.80;6.10;;;10.70;99.90;;;;;;4991394;28;20046;-76
2023/12/17 01:14:04;;;;;;;22.60;5.93;;;10.70;99.90;;;;;;4975239;28;20026;-75
2023/12/17 01:16:30;;;;;;;23.58;6.32;;;10.70;99.90;;;;;;4991392;28;20034;-76
2023/12/17 01:18:56;;;;;;;25.25;6.00;;;10.70;99.90;;;;;;4991435;28;20046;-73
2023/12/17 01:21:22;;;;;;;19.83;5.30;;;10.70;99.90;;;;;;4985184;28;20053;-73
2023/12/17 01:23:47;;;;;;;25.95;5.95;;;10.70;99.90;;;;;;4991653;28;20022;-73
2023/12/17 01:26:22;;;;;;;25.60;5.40;;;10.70;99.90;;;;;;4992078;28;20069;-76
2023/12/17 01:28:48;;;;;;;25.42;5.82;;;10.70;99.90;;;;;;4975075;28;20383;-73
2023/12/17 01:31:14;;;;;;;26.52;5.88;;;10.60;99.90;;;;;;4991444;28;20035;-73
2023/12/17 01:33:39;;;;;;;28.15;5.28;;;10.60;99.90;;;;;;4992730;28;20037;-74
2023/12/17 01:36:05;;;;;;;25.02;5.85;;;10.60;99.90;;;;;;4992844;28;20035;-73
2023/12/17 01:38:31;;;;;;;26.40;5.00;;;10.70;99.90;;;;;;4990122;28;20030;-73
2023/12/17 01:40:57;;;;;;;21.42;5.63;;;10.70;99.90;;;;;;4986487;28;20030;-74
2023/12/17 01:43:22;;;;;;;25.15;5.50;;;10.70;99.90;;;;;;4991547;28;20161;-73
2023/12/17 01:45:48;;;;;;;25.27;6.07;;;10.70;99.90;;;;;;4992416;28;20038;-75
2023/12/17 01:48:14;;;;;;;19.45;5.70;;;10.70;99.90;;;;;;4992336;28;20038;-73
2023/12/17 01:50:40;;;;;;;24.30;5.68;;;10.70;99.90;;;;;;4976695;28;20026;-72
2023/12/17 01:53:05;;;;;;;21.13;5.53;;;10.70;99.90;;;;;;4985643;28;20552;-74
2023/12/17 01:55:31;;;;;;;24.05;5.80;;;10.70;99.90;;;;;;4982282;28;20434;-73
2023/12/17 01:57:57;;;;;;;20.27;4.97;;;10.70;99.90;;;;;;4990823;28;20045;-73
2023/12/17 02:00:24;;;;;;;27.65;5.70;;;10.70;99.90;;;;;;4992440;28;20033;-74
2023/12/17 02:02:50;;;;;;;21.35;6.07;;;10.80;99.90;;;;;;4987282;28;20069;-74
2023/12/17 02:05:16;;;;;;;19.13;6.22;;;10.80;99.90;;;;;;4981605;28;20034;-76
2023/12/17 02:07:42;;;;;;;24.17;6.57;;;10.80;99.90;;;;;;4991575;28;20467;-73
2023/12/17 02:10:08;;;;;;;23.85;5.88;;;10.80;99.90;;;;;;4992580;28;20037;-76
2023/12/17 02:12:34;;;;;;;28.50;5.60;;;10.80;99.90;;;;;;4992565;28;20117;-74
2023/12/17 02:14:59;;;;;;;23.40;7.00;;;10.80;99.90;;;;;;4992196;28;20442;-74
2023/12/17 02:17:27;;;;;;;21.75;5.70;;;10.80;99.90;;;;;;4992571;28;20041;-74
2023/12/17 02:19:53;;;;;;;23.30;6.50;;;10.80;99.90;;;;;;4991518;28;20046;-73
2023/12/17 02:22:20;;;;;;;21.02;5.65;;;10.90;99.90;;;;;;4991311;28;20117;-76
2023/12/17 02:24:45;;;;;;;21.15;5.35;;;10.90;99.90;;;;;;4977508;28;20117;-76
2023/12/17 02:27:11;;;;;;;21.67;5.07;;;10.90;99.90;;;;;;4991995;28;20125;-76
2023/12/17 02:29:38;;;;;;;22.50;5.80;;;10.90;99.90;;;;;;4992396;28;20026;-73
2023/12/17 02:32:05;;;;;;;19.60;5.07;;;10.90;99.90;;;;;;4990451;28;20022;-74
2023/12/17 02:34:31;;;;;;;22.42;4.65;;;10.90;99.90;;;;;;4992175;28;20092;-73
2023/12/17 02:36:56;;;;;;;20.52;4.90;;;11.00;99.90;;;;;;4995694;28;20026;-73
2023/12/17 02:39:22;;;;;;;19.90;5.43;;;11.00;99.90;;;;;;4995847;28;20410;-73
2023/12/17 02:41:47;;;;;;;18.13;4.90;;;11.00;99.90;;;;;;4983179;28;20102;-73
2023/12/17 02:44:13;;;;;;;15.80;4.30;;;11.00;99.90;;;;;;4992401;28;20039;-73
2023/12/17 02:46:38;;;;;;;18.88;4.72;;;11.00;99.90;;;;;;4979008;28;20065;-73
2023/12/17 02:49:04;;;;;;;23.00;4.95;;;11.00;99.90;;;;;;4995659;28;20069;-73
2023/12/17 02:51:31;;;;;;;21.23;5.07;;;11.00;99.90;;;;;;4995976;28;20030;-73
2023/12/17 02:53:57;;;;;;;14.07;4.50;;;11.00;99.90;;;;;;4995479;28;20110;-73
2023/12/17 02:56:22;;;;;;;20.08;4.97;;;11.00;99.90;;;;;;4994360;28;20096;-74
2023/12/17 02:58:48;;;;;;;18.60;4.80;;;11.00;99.90;;;;;;4993394;28;20026;-73
2023/12/17 03:01:13;;;;;;;17.35;4.47;;;11.00;99.90;;;;;;4995260;28;20026;-73
2023/12/17 03:03:39;;;;;;;19.20;4.72;;;11.00;99.90;;;;;;4983866;28;20023;-73
2023/12/17 03:06:04;;;;;;;18.02;4.68;;;11.00;99.90;;;;;;4989997;28;20057;-73
2023/12/17 03:08:30;;;;;;;16.45;4.78;;;11.00;99.90;;;;;;4995282;28;20105;-73
2023/12/17 03:10:55;;;;;;;17.52;4.45;;;11.00;99.90;;;;;;4994172;28;20061;-74
2023/12/17 03:13:21;;;;;;;14.32;4.20;;;11.00;99.90;;;;;;4995121;28;20026;-73
2023/12/17 03:15:47;;;;;;;13.50;4.40;;;11.00;99.90;;;;;;4995094;28;20030;-73
2023/12/17 03:18:12;;;;;;;13.10;3.90;;;11.00;99.90;;;;;;4994431;28;20054;-73
2023/12/17 03:20:38;;;;;;;13.40;3.67;;;11.00;99.90;;;;;;4995218;28;20029;-73
2023/12/17 03:23:03;;;;;;;11.82;4.15;;;11.00;99.90;;;;;;4994973;28;20018;-73
2023/12/17 03:25:29;;;;;;;16.65;4.03;;;11.00;99.90;;;;;;4994985;28;20458;-73
2023/12/17 03:27:54;;;;;;;16.05;4.10;;;11.00;99.90;;;;;;4994988;28;20109;-73
2023/12/17 03:30:21;;;;;;;12.93;3.58;;;11.00;99.90;;;;;;4993794;28;20029;-73
2023/12/17 03:32:47;;;;;;;12.52;3.60;;;11.00;99.90;;;;;;4995248;28;20468;-73
2023/12/17 03:35:13;;;;;;;14.90;3.85;;;11.00;99.90;;;;;;4986855;28;20101;-73
2023/12/17 03:37:38;;;;;;;12.38;3.63;;;11.00;99.90;;;;;;4986811;28;20105;-73
2023/12/17 03:40:04;;;;;;;11.98;3.53;;;10.90;99.90;;;;;;4994359;28;20072;-73
2023/12/17 03:42:30;;;;;;;17.27;4.22;;;11.00;99.90;;;;;;4993403;28;20018;-73
2023/12/17 03:44:55;;;;;;;18.88;4.55;;;11.00;99.90;;;;;;4993188;28;20030;-73
2023/12/17 03:47:21;;;;;;;15.80;4.20;;;11.00;99.90;;;;;;4985265;28;20046;-73
2023/12/17 03:49:46;;;;;;;13.93;4.22;;;10.90;99.90;;;;;;4987704;28;20034;-73
2023/12/17 03:52:12;;;;;;;16.67;4.22;;;11.00;99.90;;;;;;4978191;28;20027;-73
2023/12/17 03:54:37;;;;;;;24.60;4.63;;;11.00;99.90;;;;;;4993686;28;20030;-73
2023/12/17 03:57:03;;;;;;;19.83;4.30;;;11.00;99.90;;;;;;4993436;28;20030;-73
2023/12/17 03:59:29;;;;;;;20.80;4.22;;;10.90;99.90;;;;;;4993119;28;20085;-74
2023/12/17 04:01:54;;;;;;;18.52;4.05;;;10.90;99.90;;;;;;4994530;28;20069;-73
2023/12/17 04:04:20;;;;;;;16.23;4.05;;;10.90;99.90;;;;;;4979989;28;20049;-73
2023/12/17 04:06:46;;;;;;;16.90;3.58;;;10.90;99.90;;;;;;4990813;28;20136;-73
2023/12/17 04:09:11;;;;;;;15.07;4.03;;;10.90;99.90;;;;;;4993169;28;20568;-73
2023/12/17 04:11:37;;;;;;;20.63;4.78;;;10.80;99.90;;;;;;4993233;28;20117;-73
2023/12/17 04:14:02;;;;;;;20.95;4.32;;;10.80;99.90;;;;;;4992888;28;20426;-73
2023/12/17 04:16:28;;;;;;;15.93;4.07;;;10.80;99.90;;;;;;4993751;28;20034;-73
2023/12/17 04:18:53;;;;;;;12.35;3.90;;;10.90;99.90;;;;;;4988464;28;20542;-73
2023/12/17 04:21:19;;;;;;;19.73;4.18;;;10.80;99.90;;;;;;4983510;28;20023;-73
2023/12/17 04:23:45;;;;;;;17.80;3.75;;;10.90;99.90;;;;;;4981578;28;20038;-73
2023/12/17 04:26:11;;;;;;;21.63;4.60;;;10.90;99.90;;;;;;4988752;28;20037;-73
2023/12/17 04:28:37;;;;;;;17.08;4.18;;;10.90;99.90;;;;;;4993991;28;20072;-73
2023/12/17 04:31:02;;;;;;;17.33;4.18;;;10.90;99.90;;;;;;4993533;28;20034;-73
2023/12/17 04:33:28;;;;;;;20.83;4.88;;;10.90;99.90;;;;;;4993789;28;20034;-73
2023/12/17 04:35:54;;;;;;;15.90;3.90;;;10.90;99.90;;;;;;4980101;28;20038;-73
2023/12/17 04:38:19;;;;;;;29.58;5.55;;;10.90;99.90;;;;;;4989858;28;20030;-72
2023/12/17 04:40:46;;;;;;;13.30;3.63;;;10.90;99.90;;;;;;4993574;28;20026;-73
2023/12/17 04:43:12;;;;;;;15.38;4.00;;;10.90;99.90;;;;;;4993556;28;20030;-73
2023/12/17 04:45:38;;;;;;;17.98;4.55;;;10.90;99.90;;;;;;4993496;28;20485;-73
2023/12/17 04:48:03;;;;;;;20.73;4.13;;;10.90;99.90;;;;;;4978817;28;20092;-73
2023/12/17 04:50:29;;;;;;;19.83;4.65;;;10.90;99.90;;;;;;4991003;28;20023;-73
2023/12/17 04:52:54;;;;;;;15.55;4.60;;;10.80;99.90;;;;;;4993782;28;20022;-73
2023/12/17 04:55:20;;;;;;;17.65;3.78;;;10.80;99.90;;;;;;4993165;28;20034;-73
2023/12/17 04:57:45;;;;;;;20.98;4.22;;;10.70;99.90;;;;;;4993137;28;20113;-73
2023/12/17 05:00:11;;;;;;;18.55;3.97;;;10.80;99.90;;;;;;4993001;28;20030;-73
2023/12/17 05:02:37;;;;;;;16.17;4.22;;;10.80;99.90;;;;;;4979854;28;20022;-73
2023/12/17 05:05:03;;;;;;;19.30;3.95;;;10.80;99.90;;;;;;4993498;28;20070;-73
2023/12/17 05:07:29;;;;;;;15.25;4.07;;;10.80;99.90;;;;;;4993394;28;20109;-73
2023/12/17 05:09:55;;;;;;;20.95;4.35;;;10.80;99.90;;;;;;4992405;28;20162;-73
2023/12/17 05:12:20;;;;;;;16.75;4.28;;;10.80;99.90;;;;;;4993185;28;20125;-73
2023/12/17 05:14:46;;;;;;;22.83;4.47;;;10.80;99.90;;;;;;4992988;28;20030;-73
2023/12/17 05:17:11;;;;;;;17.98;3.92;;;10.80;99.90;;;;;;4993315;28;20030;-73
2023/12/17 05:19:37;;;;;;;17.80;3.92;;;10.80;99.90;;;;;;4988973;28;20765;-72
2023/12/17 05:22:03;;;;;;;19.95;4.45;;;10.70;99.90;;;;;;4992266;28;20038;-73
2023/12/17 05:24:28;;;;;;;20.73;4.97;;;10.70;99.90;;;;;;4992091;28;20038;-73
2023/12/17 05:26:54;;;;;;;16.58;3.92;;;10.70;99.90;;;;;;4992826;28;20030;-73
2023/12/17 05:29:19;;;;;;;22.23;5.55;;;10.70;99.90;;;;;;4992804;28;20363;-73
2023/12/17 05:31:45;;;;;;;22.92;5.10;;;10.60;99.90;;;;;;4993171;28;20489;-73
2023/12/17 05:34:10;;;;;;;16.65;4.97;;;10.60;99.90;;;;;;4990771;28;20478;-73
2023/12/17 05:36:36;;;;;;;22.02;6.20;;;10.60;99.90;;;;;;4992347;28;20470;-73
2023/12/17 05:39:01;;;;;;;22.48;5.43;;;10.60;99.90;;;;;;4993219;28;20074;-73
2023/12/17 05:41:27;;;;;;;25.75;5.68;;;10.50;99.90;;;;;;4992994;28;20026;-73
2023/12/17 05:43:53;;;;;;;23.00;5.68;;;10.50;99.90;;;;;;4991862;28;20027;-73
2023/12/17 05:46:18;;;;;;;23.40;5.97;;;10.50;99.90;;;;;;4989923;28;20069;-73
2023/12/17 05:48:44;;;;;;;20.95;6.00;;;10.40;99.90;;;;;;4992635;28;20026;-73
2023/12/17 05:51:09;;;;;;;18.85;5.43;;;10.40;99.90;;;;;;4993577;28;20467;-73
2023/12/17 05:53:35;;;;;;;20.58;5.30;;;10.50;99.90;;;;;;5000848;28;20459;-73
2023/12/17 05:56:00;;;;;;;22.10;5.28;;;10.50;99.90;;;;;;4999328;28;20488;-73
2023/12/17 05:58:26;;;;;;;21.17;5.80;;;10.40;99.90;;;;;;4999403;28;20038;-73
2023/12/17 06:00:52;;;;;;;21.13;5.40;;;10.40;99.90;;;;;;5000452;28;20449;-73
2023/12/17 06:03:17;;;;;;;20.90;5.30;;;10.50;99.90;;;;;;4997336;28;20023;-72
2023/12/17 06:05:43;;;;;;;20.15;5.25;;;10.40;99.90;;;;;;4996550;28;20141;-73
2023/12/17 06:08:08;;;;;;;26.50;6.28;;;10.40;99.90;;;;;;4992816;28;20485;-73
2023/12/17 06:10:34;;;;;;;27.23;5.40;;;10.40;99.90;;;;;;5000497;28;20467;-73
2023/12/17 06:13:00;;;;;;;23.58;5.43;;;10.40;99.90;;;;;;5005797;28;20034;-73
2023/12/17 06:15:25;;;;;;;28.70;6.18;;;10.40;99.90;;;;;;5004750;28;20044;-72
2023/12/17 06:17:51;;;;;;;24.95;5.95;;;10.40;99.90;;;;;;4995339;28;20421;-73
2023/12/17 06:20:16;;;;;;;26.17;5.43;;;10.30;99.90;;;;;;4994878;28;20158;-73
2023/12/17 06:22:42;;;;;;;26.20;6.30;;;10.30;99.90;;;;;;5001464;28;20037;-72
2023/12/17 06:25:08;;;;;;;25.52;6.13;;;10.40;99.90;;;;;;4989922;28;20434;-72
2023/12/17 06:27:34;;;;;;;22.35;5.50;;;10.40;99.90;;;;;;4986660;28;20182;-73
2023/12/17 06:30:00;;;;;;;22.38;5.30;;;10.40;99.90;;;;;;4985223;28;20034;-72
2023/12/17 06:32:25;;;;;;;30.67;6.07;;;10.40;99.90;;;;;;4994679;28;20251;-72
2023/12/17 06:34:51;;;;;;;26.20;5.90;;;10.40;99.90;;;;;;4995295;28;20474;-72
2023/12/17 06:37:17;;;;;;;23.27;5.30;;;10.40;99.90;;;;;;4995807;28;20034;-73
2023/12/17 06:39:43;;;;;;;22.65;5.05;;;10.50;99.90;;;;;;4996100;28;20068;-72
2023/12/17 06:42:11;;;;;;;23.33;4.90;;;10.50;99.90;;;;;;4993501;28;20034;-72
2023/12/17 06:44:37;;;;;;;27.92;5.72;;;10.40;99.90;;;;;;4995161;28;20465;-72
2023/12/17 06:47:03;;;;;;;30.27;5.65;;;10.40;99.90;;;;;;4995739;28;20034;-72
2023/12/17 06:49:29;;;;;;;31.85;6.05;;;10.50;99.90;;;;;;4985652;28;20033;-72
2023/12/17 06:51:54;;;;;;;29.23;5.97;;;10.50;99.90;;;;;;4989344;28;20383;-73
2023/12/17 06:54:20;;;;;;;23.63;5.82;;;10.50;99.90;;;;;;4994490;28;20137;-73
2023/12/17 06:56:46;;;;;;;25.52;5.65;;;10.50;99.90;;;;;;4995225;28;20449;-73
2023/12/17 06:59:11;;;;;;;26.70;5.68;;;10.50;99.90;;;;;;4995786;28;20027;-73
2023/12/17 07:01:37;;;;;;;29.17;6.50;;;10.60;99.90;;;;;;4995246;28;20034;-72
2023/12/17 07:04:02;;;;;;;27.20;5.97;;;10.50;99.90;;;;;;4981646;28;20062;-73
2023/12/17 07:06:30;;;;;;;21.73;6.22;;;10.50;99.90;;;;;;4994105;28;20038;-73
2023/12/17 07:08:56;;;;;;;25.17;6.05;;;10.50;99.90;;;;;;4995500;28;20018;-72
2023/12/17 07:11:22;;;;;;;22.92;6.03;;;10.50;99.90;;;;;;4985840;28;20023;-73
2023/12/17 07:13:49;;;;;;;25.45;6.60;;;10.50;99.90;;;;;;4988234;28;20031;-73
2023/12/17 07:16:25;;;;;;;25.83;6.50;;;10.50;99.90;;;;;;4983024;28;20761;-73
2023/12/17 07:18:51;;;;;;;22.15;5.75;;;10.50;99.90;;;;;;4995064;28;20046;-72
2023/12/17 07:21:17;;;;;;;25.00;6.63;;;10.60;99.90;;;;;;4994562;28;20026;-73
2023/12/17 07:23:43;;;;;;;27.40;6.78;;;10.60;99.90;;;;;;4994378;28;20037;-73
2023/12/17 07:26:08;;;;;;;24.92;6.85;;;10.50;99.90;;;;;;4994084;28;20046;-72
2023/12/17 07:28:34;;;;;;;29.70;6.38;;;10.50;99.90;;;;;;4994840;28;20034;-73
2023/12/17 07:31:00;;;;;;;26.83;6.68;;;10.50;99.90;;;;;;4995181;28;20061;-72
2023/12/17 07:33:26;;;;;;;25.77;6.57;;;10.50;99.90;;;;;;4994706;28;20109;-72
2023/12/17 07:35:52;;;;;;;25.85;6.53;;;10.50;99.90;;;;;;4994580;28;20118;-73
2023/12/17 07:38:18;;;;;;;30.30;7.03;;;10.40;99.90;;;;;;4994916;28;20030;-72
2023/12/17 07:40:43;;;;;;;27.25;6.85;;;10.30;99.90;;;;;;4995173;28;20041;-72
2023/12/17 07:43:09;;;;;;;23.63;7.25;;;10.40;99.90;;;;;;4994996;28;20384;-73
2023/12/17 07:45:36;;;;;;;28.17;7.50;;;10.40;99.90;;;;;;4995061;28;20109;-73
2023/12/17 07:48:02;;;;;;;31.75;8.90;;;10.30;99.90;;;;;;4994787;28;20467;-72
2023/12/17 07:50:28;;;;;;;29.00;8.23;;;10.30;99.90;;;;;;4994314;28;20072;-73
2023/12/17 07:52:53;;;;;;;25.85;8.85;;;10.30;99.90;;;;;;4993605;28;20097;-73
2023/12/17 07:55:19;;;;;;;31.05;11.60;;;10.30;99.90;;;;;;4994766;28;20026;-73
2023/12/17 07:57:44;;;;;;;26.80;12.00;;;10.30;99.90;;;;;;4994498;28;20154;-73
2023/12/17 08:00:11;;;;;;;33.97;14.80;;;10.30;99.90;;;;;;4994376;28;20066;-73
2023/12/17 08:02:38;;;;;;;29.45;13.77;;;10.30;99.90;;;;;;4978389;28;20027;-72
2023/12/17 08:05:05;;;;;;;33.40;13.63;;;10.30;99.90;;;;;;4994374;28;20532;-73
2023/12/17 08:07:31;;;;;;;27.58;13.95;;;10.30;99.90;;;;;;4993913;28;20077;-73
2023/12/17 08:09:57;;;;;;;38.28;15.43;;;10.30;99.90;;;;;;4994476;28;20474;-73
2023/12/17 08:12:22;;;;;;;33.63;14.60;;;10.30;99.90;;;;;;4994580;28;20038;-72
2023/12/17 08:14:48;;;;;;;34.65;15.52;;;10.30;99.90;;;;;;4993926;28;20121;-73
2023/12/17 08:17:13;;;;;;;30.30;16.23;;;10.30;99.90;;;;;;4987168;28;20045;-74
2023/12/17 08:19:39;;;;;;;32.65;15.90;;;10.20;99.90;;;;;;4990311;28;20135;-71
2023/12/17 08:22:05;;;;;;;33.58;16.45;;;10.20;99.90;;;;;;4992022;28;20030;-72
2023/12/17 08:24:30;;;;;;;36.50;16.10;;;10.30;99.90;;;;;;4977893;28;20035;-74
2023/12/17 08:26:59;;;;;;;27.08;16.23;;;10.20;99.90;;;;;;4987964;28;20086;-73
2023/12/17 08:29:26;;;;;;;33.10;15.80;;;10.20;99.90;;;;;;4985834;28;20145;-72
2023/12/17 08:31:52;;;;;;;33.63;15.82;;;10.20;99.90;;;;;;4992475;28;20102;-71
2023/12/17 08:34:17;;;;;;;28.48;15.10;;;10.20;99.90;;;;;;4989754;28;20030;-73
2023/12/17 08:36:43;;;;;;;32.45;16.73;;;10.20;99.90;;;;;;4992570;28;20034;-73
2023/12/17 08:39:11;;;;;;;35.28;15.55;;;10.20;99.90;;;;;;4992751;28;20026;-72
2023/12/17 08:41:38;;;;;;;29.30;14.80;;;10.20;99.90;;;;;;4993368;28;20401;-73
2023/12/17 08:44:03;;;;;;;34.35;15.95;;;10.20;99.90;;;;;;4993248;28;20026;-73
2023/12/17 08:46:29;;;;;;;29.52;13.75;;;10.20;99.90;;;;;;4992082;28;20050;-73
2023/12/17 08:48:55;;;;;;;30.75;16.00;;;10.20;99.90;;;;;;4991889;28;20057;-73
2023/12/17 08:51:21;;;;;;;33.22;15.63;;;10.10;99.90;;;;;;4993497;28;20818;-72
2023/12/17 08:53:47;;;;;;;35.88;15.70;;;10.10;99.90;;;;;;4993428;28;20023;-73
2023/12/17 08:56:13;;;;;;;28.25;14.82;;;10.10;99.90;;;;;;4992306;28;20026;-73
2023/12/17 08:58:38;;;;;;;30.80;13.68;;;10.10;99.90;;;;;;4992751;28;20022;-73
2023/12/17 09:01:04;;;;;;;32.10;14.55;;;10.10;99.90;;;;;;4992579;28;20030;-73
2023/12/17 09:03:30;;;;;;;29.80;12.48;;;10.10;99.90;;;;;;4992600;28;20125;-73
2023/12/17 09:05:55;;;;;;;28.92;14.10;;;10.10;99.90;;;;;;4993013;28;20030;-72
2023/12/17 09:08:21;;;;;;;26.60;13.75;;;10.10;99.90;;;;;;4992585;28;20038;-73
2023/12/17 09:10:47;;;;;;;29.17;13.43;;;10.10;99.90;;;;;;4993349;28;20034;-73
2023/12/17 09:13:12;;;;;;;28.95;13.77;;;10.10;99.90;;;;;;4992920;28;20478;-73
2023/12/17 09:15:39;;;;;;;28.88;14.57;;;10.10;99.90;;;;;;4981518;28;20023;-73
2023/12/17 09:18:07;;;;;;;34.00;15.95;;;10.10;99.90;;;;;;4987771;28;20121;-73
2023/12/17 09:20:33;;;;;;;29.10;13.90;;;10.10;99.90;;;;;;4992541;28;20463;-73
2023/12/17 09:22:59;;;;;;;31.50;15.30;;;10.10;99.90;;;;;;4991733;28;20049;-72
2023/12/17 09:25:24;;;;;;;36.30;14.73;;;10.10;99.90;;;;;;4991507;28;20034;-72
2023/12/17 09:27:53;;;;;;;30.48;13.75;;;10.20;99.90;;;;;;4990520;28;20041;-73
2023/12/17 09:30:19;;;;;;;28.90;14.07;;;10.30;99.90;;;;;;4989736;28;20031;-73
2023/12/17 09:32:45;;;;;;;29.10;14.30;;;10.30;99.90;;;;;;4991797;28;20449;-73
2023/12/17 09:35:11;;;;;;;28.98;13.13;;;10.30;99.90;;;;;;4991700;28;20034;-73
2023/12/17 09:37:37;;;;;;;32.15;14.30;;;10.20;99.90;;;;;;4989531;28;20465;-73
2023/12/17 09:40:05;;;;;;;31.83;14.27;;;10.30;99.90;;;;;;4989990;28;20030;-73
2023/12/17 09:42:31;;;;;;;29.77;13.85;;;10.30;99.90;;;;;;4992484;28;20035;-74
2023/12/17 09:44:56;;;;;;;30.00;14.93;;;10.30;99.90;;;;;;4994725;28;20052;-73
2023/12/17 09:47:22;;;;;;;35.30;15.35;;;10.30;99.90;;;;;;4995367;28;20133;-73
2023/12/17 09:49:48;;;;;;;33.55;16.33;;;10.30;99.90;;;;;;4996769;28;20030;-73
2023/12/17 09:52:17;;;;;;;32.67;16.77;;;10.30;99.90;;;;;;4995974;28;20058;-74
2023/12/17 09:54:47;;;;;;;34.80;17.10;;;10.30;99.90;;;;;;4995864;28;20485;-73
2023/12/17 09:57:13;;;;;;;31.08;16.27;;;10.30;99.90;;;;;;4995946;28;20026;-73
2023/12/17 09:59:39;;;;;;;31.88;16.15;;;10.30;99.90;;;;;;4997001;28;20085;-73
2023/12/17 10:02:05;;;;;;;33.45;16.88;;;10.30;99.90;;;;;;4996442;28;20026;-74
2023/12/17 10:04:31;;;;;;;35.92;16.83;;;10.20;99.90;;;;;;4996509;28;20027;-73
2023/12/17 10:06:57;;;;;;;34.17;17.52;;;10.30;99.90;;;;;;4995798;28;20078;-73
2023/12/17 10:09:22;;;;;;;31.13;15.73;;;10.30;99.90;;;;;;4996458;28;20062;-73
2023/12/17 10:11:48;;;;;;;37.03;17.23;;;10.30;99.90;;;;;;4996031;28;20410;-73
2023/12/17 10:14:25;;;;;;;30.77;16.75;;;10.40;99.90;;;;;;4995678;28;20029;-73
2023/12/17 10:16:51;;;;;;;31.08;14.32;;;10.50;99.90;;;;;;4992511;28;20066;-73
2023/12/17 10:19:18;;;;;;;28.50;15.82;;;10.50;99.90;;;;;;4996403;28;20479;-73
2023/12/17 10:21:44;;;;;;;35.00;16.02;;;10.40;99.90;;;;;;4996307;28;20038;-73
2023/12/17 10:24:10;;;;;;;29.33;15.95;;;10.40;99.90;;;;;;4996147;28;20026;-73
2023/12/17 10:26:45;;;;;;;34.45;15.40;;;10.40;99.90;;;;;;4992496;28;20376;-73
2023/12/17 10:29:16;;;;;;;31.55;16.15;;;10.40;99.90;;;;;;4984648;28;20054;-73
2023/12/17 10:31:42;;;;;;;28.42;13.32;;;10.40;99.90;;;;;;4996265;28;20031;-73
2023/12/17 10:34:22;;;;;;;32.83;15.10;;;10.50;99.90;;;;;;4978911;28;20034;-73
2023/12/17 10:36:51;;;;;;;31.83;15.32;;;10.40;99.90;;;;;;4980111;28;20026;-73
2023/12/17 10:39:19;;;;;;;30.48;15.05;;;10.40;99.90;;;;;;4994628;28;20030;-73
2023/12/17 10:41:47;;;;;;;28.95;16.08;;;10.40;99.90;;;;;;4994355;28;20041;-73
2023/12/17 10:44:14;;;;;;;29.77;15.23;;;10.40;99.90;;;;;;4995792;28;20030;-73
2023/12/17 10:46:44;;;;;;;30.63;14.88;;;10.50;99.90;;;;;;4979951;28;20034;-73
2023/12/17 10:49:13;;;;;;;29.45;14.77;;;10.50;99.90;;;;;;4995664;28;20038;-73
2023/12/17 10:51:40;;;;;;;32.30;15.88;;;10.50;99.90;;;;;;4993954;28;20034;-73
2023/12/17 10:54:06;;;;;;;28.60;13.90;;;10.40;99.90;;;;;;4995542;28;20041;-73
2023/12/17 10:56:42;;;;;;;32.72;15.60;;;10.50;99.90;;;;;;4993164;28;20057;-73
2023/12/17 10:59:13;;;;;;;30.35;14.88;;;10.50;99.90;;;;;;4994551;28;20552;-73
2023/12/17 11:01:40;;;;;;;27.27;13.98;;;10.60;99.90;;;;;;4994185;28;20100;-73
2023/12/17 11:04:07;;;;;;;28.45;14.93;;;10.60;99.90;;;;;;4995113;28;20117;-73
2023/12/17 11:06:32;;;;;;;28.23;13.27;;;10.70;99.90;;;;;;4995030;28;20089;-73
2023/12/17 11:08:59;;;;;;;25.52;13.80;;;10.90;99.90;;;;;;4994665;28;20026;-73
2023/12/17 11:11:26;;;;;;;26.85;12.95;;;10.90;99.90;;;;;;4994972;28;20026;-73
2023/12/17 11:13:52;;;;;;;27.30;14.70;;;10.90;99.90;;;;;;4995263;28;20022;-73
2023/12/17 11:16:24;;;;;;;27.83;13.95;;;11.00;99.90;;;;;;4995260;28;20033;-73
2023/12/17 11:18:53;;;;;;;28.88;13.95;;;11.10;99.90;;;;;;4994067;28;20561;-74
2023/12/17 11:21:19;;;;;;;26.70;12.60;;;11.30;99.90;;;;;;4993413;28;20445;-74
2023/12/17 11:23:54;;;;;;;26.67;13.02;;;11.50;99.90;;;;;;4995308;28;20105;-73
2023/12/17 11:26:20;;;;;;;26.48;12.43;;;11.80;99.90;;;;;;4995090;28;20096;-73
2023/12/17 11:28:46;;;;;;;24.63;12.00;;;12.20;99.90;;;;;;4990445;28;20023;-73
2023/12/17 11:31:12;;;;;;;24.10;10.82;;;12.40;99.90;;;;;;4986741;28;20042;-74
2023/12/17 11:33:39;;;;;;;28.63;12.23;;;12.50;99.90;;;;;;4994816;28;20470;-74
2023/12/17 11:36:10;;;;;;;30.52;12.13;;;12.70;99.90;;;;;;4995022;28;20053;-74
2023/12/17 11:38:36;;;;;;;23.10;11.70;;;12.90;99.90;;;;;;4994773;28;20030;-74
2023/12/17 11:41:03;;;;;;;23.85;10.90;;;13.10;99.90;;;;;;4994786;28;20018;-74
2023/12/17 11:43:29;;;;;;;22.30;11.30;;;13.40;99.90;;;;;;4994445;28;20126;-74
2023/12/17 11:45:55;;;;;;;24.90;10.90;;;13.70;99.90;;;;;;4995203;28;20026;-74
2023/12/17 11:48:22;;;;;;;24.83;10.35;;;13.90;99.90;;;;;;4994320;28;20027;-74
2023/12/17 11:50:50;;;;;;;22.90;9.43;;;14.20;99.90;;;;;;4990273;28;20058;-74
2023/12/17 11:53:20;;;;;;;24.55;9.73;;;14.30;99.90;;;;;;4989423;28;20030;-74
2023/12/17 11:55:56;;;;;;;22.40;9.65;;;14.20;99.90;;;;;;4994482;28;20031;-74
2023/12/17 11:58:22;;;;;;;21.88;9.23;;;14.20;99.90;;;;;;4994046;28;20382;-74
2023/12/17 12:01:09;;;;;;;23.35;9.10;;;14.40;99.90;;;;;;4989550;28;20026;-74
2023/12/17 12:03:36;;;;;;;24.25;10.73;;;14.50;99.90;;;;;;4991299;28;20030;-74
2023/12/17 12:06:09;;;;;;;19.00;9.65;;;14.30;99.90;;;;;;4993586;28;20092;-74
2023/12/17 12:08:35;;;;;;;23.10;10.57;;;14.30;99.90;;;;;;4993931;28;20113;-74
2023/12/17 12:11:02;;;;;;;24.75;10.98;;;14.30;99.90;;;;;;4994432;28;20451;-74
2023/12/17 12:13:28;;;;;;;20.63;10.75;;;14.20;99.90;;;;;;4993200;28;20038;-74
2023/12/17 12:15:58;;;;;;;24.92;10.05;;;14.30;99.90;;;;;;4994308;28;20042;-74
2023/12/17 12:18:24;;;;;;;24.40;10.65;;;14.20;99.90;;;;;;4993144;28;20054;-74
2023/12/17 12:20:50;;;;;;;27.58;10.15;;;14.20;99.90;;;;;;4994222;28;20032;-74
2023/12/17 12:23:16;;;;;;;23.60;9.40;;;14.30;99.90;;;;;;4993802;28;20066;-74
2023/12/17 12:25:41;;;;;;;23.60;10.27;;;14.20;99.90;;;;;;4993025;28;20027;-74
2023/12/17 12:28:15;;;;;;;21.90;8.50;;;14.20;99.90;;;;;;4993726;28;20095;-74